sensor_id;sensor_type;location;lat;lon;timestamp;P1;durP1;ratioP1;P2;durP2;ratioP2
67869;SDS011;54673;52.262;6.830;2022-10-29T00:01:53;4.93;;;2.47;;
67869;SDS011;54673;52.262;6.830;2022-10-29T00:04:19;5.05;;;2.45;;
67869;SDS011;54673;52.262;6.830;2022-10-29T00:06:46;3.77;;;2.53;;
67869;SDS011;54673;52.262;6.830;2022-10-29T00:09:12;6.03;;;2.58;;
67869;SDS011;54673;52.262;6.830;2022-10-29T00:11:38;3.57;;;2.57;;
67869;SDS011;54673;52.262;6.830;2022-10-29T00:14:03;4.40;;;2.83;;
67869;SDS011;54673;52.262;6.830;2022-10-29T00:16:33;4.77;;;2.40;;
67869;SDS011;54673;52.262;6.830;2022-10-29T00:19:00;3.38;;;2.33;;
67869;SDS011;54673;52.262;6.830;2022-10-29T00:21:26;5.27;;;2.97;;
67869;SDS011;54673;52.262;6.830;2022-10-29T00:23:52;5.50;;;2.75;;
67869;SDS011;54673;52.262;6.830;2022-10-29T00:26:18;3.87;;;2.50;;
67869;SDS011;54673;52.262;6.830;2022-10-29T00:28:46;4.45;;;2.47;;
67869;SDS011;54673;52.262;6.830;2022-10-29T00:31:13;5.10;;;2.53;;
67869;SDS011;54673;52.262;6.830;2022-10-29T00:33:40;3.15;;;2.22;;
67869;SDS011;54673;52.262;6.830;2022-10-29T00:36:08;5.00;;;2.28;;
67869;SDS011;54673;52.262;6.830;2022-10-29T00:38:37;4.40;;;2.20;;
67869;SDS011;54673;52.262;6.830;2022-10-29T00:41:04;4.28;;;2.35;;
67869;SDS011;54673;52.262;6.830;2022-10-29T00:43:34;4.03;;;2.80;;
67869;SDS011;54673;52.262;6.830;2022-10-29T00:46:02;4.43;;;2.72;;
67869;SDS011;54673;52.262;6.830;2022-10-29T00:48:33;3.97;;;2.38;;
67869;SDS011;54673;52.262;6.830;2022-10-29T00:51:02;3.83;;;2.37;;
67869;SDS011;54673;52.262;6.830;2022-10-29T00:53:32;5.90;;;2.60;;
67869;SDS011;54673;52.262;6.830;2022-10-29T00:56:00;5.90;;;2.80;;
67869;SDS011;54673;52.262;6.830;2022-10-29T00:58:26;6.53;;;2.72;;
67869;SDS011;54673;52.262;6.830;2022-10-29T01:00:53;5.55;;;2.97;;
67869;SDS011;54673;52.262;6.830;2022-10-29T01:03:19;7.77;;;2.80;;
67869;SDS011;54673;52.262;6.830;2022-10-29T01:05:45;5.90;;;2.63;;
67869;SDS011;54673;52.262;6.830;2022-10-29T01:08:12;6.17;;;2.40;;
67869;SDS011;54673;52.262;6.830;2022-10-29T01:10:51;4.40;;;2.70;;
67869;SDS011;54673;52.262;6.830;2022-10-29T01:13:46;6.23;;;2.37;;
67869;SDS011;54673;52.262;6.830;2022-10-29T01:19:54;4.88;;;2.20;;
67869;SDS011;54673;52.262;6.830;2022-10-29T01:30:00;5.38;;;2.25;;
67869;SDS011;54673;52.262;6.830;2022-10-29T01:43:30;7.72;;;2.70;;
67869;SDS011;54673;52.262;6.830;2022-10-29T01:46:03;4.35;;;2.40;;
67869;SDS011;54673;52.262;6.830;2022-10-29T01:48:33;6.27;;;2.30;;
67869;SDS011;54673;52.262;6.830;2022-10-29T01:51:01;4.60;;;2.67;;
67869;SDS011;54673;52.262;6.830;2022-10-29T01:53:30;5.40;;;2.30;;
67869;SDS011;54673;52.262;6.830;2022-10-29T01:55:59;4.85;;;2.70;;
67869;SDS011;54673;52.262;6.830;2022-10-29T01:58:25;6.87;;;2.33;;
67869;SDS011;54673;52.262;6.830;2022-10-29T02:01:10;4.80;;;2.30;;
67869;SDS011;54673;52.262;6.830;2022-10-29T02:06:26;5.03;;;2.47;;
67869;SDS011;54673;52.262;6.830;2022-10-29T02:09:04;3.13;;;2.10;;
67869;SDS011;54673;52.262;6.830;2022-10-29T02:14:25;4.63;;;2.30;;
67869;SDS011;54673;52.262;6.830;2022-10-29T02:16:56;4.50;;;2.30;;
67869;SDS011;54673;52.262;6.830;2022-10-29T02:19:22;6.80;;;2.40;;
67869;SDS011;54673;52.262;6.830;2022-10-29T02:21:54;4.10;;;2.30;;
67869;SDS011;54673;52.262;6.830;2022-10-29T02:24:19;5.40;;;2.22;;
67869;SDS011;54673;52.262;6.830;2022-10-29T02:26:45;4.67;;;2.23;;
67869;SDS011;54673;52.262;6.830;2022-10-29T02:29:10;4.27;;;1.80;;
67869;SDS011;54673;52.262;6.830;2022-10-29T02:31:36;4.47;;;2.40;;
67869;SDS011;54673;52.262;6.830;2022-10-29T02:34:01;3.93;;;2.30;;
67869;SDS011;54673;52.262;6.830;2022-10-29T02:36:27;3.63;;;2.10;;
67869;SDS011;54673;52.262;6.830;2022-10-29T02:38:53;4.72;;;2.33;;
67869;SDS011;54673;52.262;6.830;2022-10-29T02:41:18;6.03;;;2.20;;
67869;SDS011;54673;52.262;6.830;2022-10-29T02:43:44;5.23;;;2.20;;
67869;SDS011;54673;52.262;6.830;2022-10-29T02:46:10;3.80;;;1.95;;
67869;SDS011;54673;52.262;6.830;2022-10-29T02:48:37;7.90;;;2.60;;
67869;SDS011;54673;52.262;6.830;2022-10-29T02:51:02;2.97;;;2.13;;
67869;SDS011;54673;52.262;6.830;2022-10-29T02:53:28;3.13;;;2.10;;
67869;SDS011;54673;52.262;6.830;2022-10-29T02:55:53;2.83;;;2.20;;
67869;SDS011;54673;52.262;6.830;2022-10-29T02:58:19;2.85;;;2.05;;
67869;SDS011;54673;52.262;6.830;2022-10-29T03:00:47;2.53;;;2.00;;
67869;SDS011;54673;52.262;6.830;2022-10-29T03:03:14;4.07;;;1.92;;
67869;SDS011;54673;52.262;6.830;2022-10-29T03:05:39;4.23;;;1.73;;
67869;SDS011;54673;52.262;6.830;2022-10-29T03:08:05;3.37;;;1.97;;
67869;SDS011;54673;52.262;6.830;2022-10-29T03:10:30;3.00;;;2.30;;
67869;SDS011;54673;52.262;6.830;2022-10-29T03:12:59;2.87;;;2.10;;
67869;SDS011;54673;52.262;6.830;2022-10-29T03:15:25;4.97;;;2.22;;
67869;SDS011;54673;52.262;6.830;2022-10-29T03:17:51;3.90;;;1.90;;
67869;SDS011;54673;52.262;6.830;2022-10-29T03:20:16;2.90;;;2.00;;
67869;SDS011;54673;52.262;6.830;2022-10-29T03:22:42;4.47;;;1.60;;
67869;SDS011;54673;52.262;6.830;2022-10-29T03:25:08;3.28;;;1.90;;
67869;SDS011;54673;52.262;6.830;2022-10-29T03:27:40;4.20;;;1.83;;
67869;SDS011;54673;52.262;6.830;2022-10-29T03:30:10;3.17;;;1.90;;
67869;SDS011;54673;52.262;6.830;2022-10-29T03:32:40;3.13;;;1.73;;
67869;SDS011;54673;52.262;6.830;2022-10-29T03:35:10;4.53;;;1.80;;
67869;SDS011;54673;52.262;6.830;2022-10-29T03:37:37;3.25;;;2.00;;
67869;SDS011;54673;52.262;6.830;2022-10-29T03:40:04;4.03;;;1.60;;
67869;SDS011;54673;52.262;6.830;2022-10-29T03:42:30;2.30;;;1.70;;
67869;SDS011;54673;52.262;6.830;2022-10-29T03:44:59;3.40;;;1.73;;
67869;SDS011;54673;52.262;6.830;2022-10-29T03:47:26;2.47;;;1.55;;
67869;SDS011;54673;52.262;6.830;2022-10-29T03:49:52;2.45;;;1.80;;
67869;SDS011;54673;52.262;6.830;2022-10-29T03:52:18;2.30;;;1.80;;
67869;SDS011;54673;52.262;6.830;2022-10-29T03:54:44;3.42;;;1.77;;
67869;SDS011;54673;52.262;6.830;2022-10-29T03:57:10;4.30;;;2.00;;
67869;SDS011;54673;52.262;6.830;2022-10-29T03:59:36;3.40;;;1.60;;
67869;SDS011;54673;52.262;6.830;2022-10-29T04:02:01;4.17;;;1.80;;
67869;SDS011;54673;52.262;6.830;2022-10-29T04:04:27;3.17;;;1.60;;
67869;SDS011;54673;52.262;6.830;2022-10-29T04:06:52;3.67;;;1.60;;
67869;SDS011;54673;52.262;6.830;2022-10-29T04:09:18;2.67;;;1.50;;
67869;SDS011;54673;52.262;6.830;2022-10-29T04:11:44;2.80;;;1.70;;
67869;SDS011;54673;52.262;6.830;2022-10-29T04:14:09;2.97;;;1.60;;
67869;SDS011;54673;52.262;6.830;2022-10-29T04:16:35;1.90;;;1.27;;
67869;SDS011;54673;52.262;6.830;2022-10-29T04:19:01;1.90;;;1.50;;
67869;SDS011;54673;52.262;6.830;2022-10-29T04:21:26;2.60;;;1.50;;
67869;SDS011;54673;52.262;6.830;2022-10-29T04:23:52;1.97;;;1.27;;
67869;SDS011;54673;52.262;6.830;2022-10-29T04:26:17;2.13;;;1.40;;
67869;SDS011;54673;52.262;6.830;2022-10-29T04:28:46;1.92;;;1.20;;
67869;SDS011;54673;52.262;6.830;2022-10-29T04:31:12;1.73;;;1.37;;
67869;SDS011;54673;52.262;6.830;2022-10-29T04:33:38;2.67;;;1.52;;
67869;SDS011;54673;52.262;6.830;2022-10-29T04:36:03;1.97;;;1.40;;
67869;SDS011;54673;52.262;6.830;2022-10-29T04:38:29;2.55;;;1.50;;
67869;SDS011;54673;52.262;6.830;2022-10-29T04:40:58;3.73;;;1.40;;
67869;SDS011;54673;52.262;6.830;2022-10-29T04:43:25;2.00;;;1.23;;
67869;SDS011;54673;52.262;6.830;2022-10-29T04:45:52;2.05;;;1.42;;
67869;SDS011;54673;52.262;6.830;2022-10-29T04:48:23;2.57;;;1.40;;
67869;SDS011;54673;52.262;6.830;2022-10-29T04:50:50;2.00;;;1.50;;
67869;SDS011;54673;52.262;6.830;2022-10-29T04:53:16;2.00;;;1.43;;
67869;SDS011;54673;52.262;6.830;2022-10-29T04:55:42;2.33;;;1.42;;
67869;SDS011;54673;52.262;6.830;2022-10-29T04:58:12;2.28;;;1.17;;
67869;SDS011;54673;52.262;6.830;2022-10-29T05:00:42;1.80;;;1.40;;
67869;SDS011;54673;52.262;6.830;2022-10-29T05:03:08;3.70;;;1.75;;
67869;SDS011;54673;52.262;6.830;2022-10-29T05:05:35;2.03;;;1.40;;
67869;SDS011;54673;52.262;6.830;2022-10-29T05:08:02;2.08;;;1.70;;
67869;SDS011;54673;52.262;6.830;2022-10-29T05:10:29;2.72;;;1.38;;
67869;SDS011;54673;52.262;6.830;2022-10-29T05:13:03;3.20;;;2.90;;
67869;SDS011;54673;52.262;6.830;2022-10-29T05:15:31;3.20;;;1.50;;
67869;SDS011;54673;52.262;6.830;2022-10-29T05:17:57;1.67;;;1.40;;
67869;SDS011;54673;52.262;6.830;2022-10-29T05:20:23;2.45;;;1.52;;
67869;SDS011;54673;52.262;6.830;2022-10-29T05:22:49;2.17;;;1.30;;
67869;SDS011;54673;52.262;6.830;2022-10-29T05:25:21;2.53;;;1.30;;
67869;SDS011;54673;52.262;6.830;2022-10-29T05:27:47;2.60;;;1.20;;
67869;SDS011;54673;52.262;6.830;2022-10-29T05:30:12;1.88;;;1.58;;
67869;SDS011;54673;52.262;6.830;2022-10-29T05:32:38;2.33;;;1.40;;
67869;SDS011;54673;52.262;6.830;2022-10-29T05:35:04;2.70;;;1.23;;
67869;SDS011;54673;52.262;6.830;2022-10-29T05:37:29;1.35;;;1.23;;
67869;SDS011;54673;52.262;6.830;2022-10-29T05:39:55;2.10;;;1.27;;
67869;SDS011;54673;52.262;6.830;2022-10-29T05:42:20;2.72;;;1.30;;
67869;SDS011;54673;52.262;6.830;2022-10-29T05:44:46;1.73;;;1.40;;
67869;SDS011;54673;52.262;6.830;2022-10-29T05:47:12;1.92;;;1.10;;
67869;SDS011;54673;52.262;6.830;2022-10-29T05:49:37;3.10;;;1.50;;
67869;SDS011;54673;52.262;6.830;2022-10-29T05:52:03;1.40;;;1.30;;
67869;SDS011;54673;52.262;6.830;2022-10-29T05:54:28;2.35;;;1.20;;
67869;SDS011;54673;52.262;6.830;2022-10-29T05:56:54;1.40;;;1.10;;
67869;SDS011;54673;52.262;6.830;2022-10-29T05:59:21;1.73;;;1.45;;
67869;SDS011;54673;52.262;6.830;2022-10-29T06:01:47;1.80;;;1.30;;
67869;SDS011;54673;52.262;6.830;2022-10-29T06:04:12;2.13;;;1.30;;
67869;SDS011;54673;52.262;6.830;2022-10-29T06:06:38;2.17;;;1.10;;
67869;SDS011;54673;52.262;6.830;2022-10-29T06:09:03;1.53;;;1.20;;
67869;SDS011;54673;52.262;6.830;2022-10-29T06:11:29;1.70;;;1.30;;
67869;SDS011;54673;52.262;6.830;2022-10-29T06:13:55;1.80;;;1.20;;
67869;SDS011;54673;52.262;6.830;2022-10-29T06:16:21;2.75;;;1.13;;
67869;SDS011;54673;52.262;6.830;2022-10-29T06:18:46;1.67;;;1.10;;
67869;SDS011;54673;52.262;6.830;2022-10-29T06:21:13;1.50;;;1.20;;
67869;SDS011;54673;52.262;6.830;2022-10-29T06:23:38;4.03;;;1.37;;
67869;SDS011;54673;52.262;6.830;2022-10-29T06:26:04;3.83;;;1.20;;
67869;SDS011;54673;52.262;6.830;2022-10-29T06:28:29;3.57;;;1.40;;
67869;SDS011;54673;52.262;6.830;2022-10-29T06:30:55;1.50;;;1.40;;
67869;SDS011;54673;52.262;6.830;2022-10-29T06:33:21;2.03;;;1.33;;
67869;SDS011;54673;52.262;6.830;2022-10-29T06:35:46;3.50;;;1.33;;
67869;SDS011;54673;52.262;6.830;2022-10-29T06:38:12;2.80;;;1.33;;
67869;SDS011;54673;52.262;6.830;2022-10-29T06:40:39;2.17;;;1.40;;
67869;SDS011;54673;52.262;6.830;2022-10-29T06:43:06;2.73;;;1.10;;
67869;SDS011;54673;52.262;6.830;2022-10-29T06:45:33;2.55;;;1.30;;
67869;SDS011;54673;52.262;6.830;2022-10-29T06:47:59;2.77;;;1.47;;
67869;SDS011;54673;52.262;6.830;2022-10-29T06:50:25;2.10;;;1.40;;
67869;SDS011;54673;52.262;6.830;2022-10-29T06:53:02;1.70;;;1.48;;
67869;SDS011;54673;52.262;6.830;2022-10-29T06:55:29;2.43;;;1.20;;
67869;SDS011;54673;52.262;6.830;2022-10-29T07:00:27;1.50;;;1.27;;
67869;SDS011;54673;52.262;6.830;2022-10-29T07:02:53;1.95;;;1.35;;
67869;SDS011;54673;52.262;6.830;2022-10-29T07:05:19;1.83;;;1.30;;
67869;SDS011;54673;52.262;6.830;2022-10-29T07:07:45;2.37;;;1.30;;
67869;SDS011;54673;52.262;6.830;2022-10-29T07:10:11;2.30;;;1.27;;
67869;SDS011;54673;52.262;6.830;2022-10-29T07:12:40;2.83;;;1.20;;
67869;SDS011;54673;52.262;6.830;2022-10-29T07:15:07;2.45;;;1.40;;
67869;SDS011;54673;52.262;6.830;2022-10-29T07:17:33;2.25;;;1.40;;
67869;SDS011;54673;52.262;6.830;2022-10-29T07:19:59;3.23;;;1.53;;
67869;SDS011;54673;52.262;6.830;2022-10-29T07:22:24;1.83;;;1.40;;
67869;SDS011;54673;52.262;6.830;2022-10-29T07:24:50;2.00;;;1.40;;
67869;SDS011;54673;52.262;6.830;2022-10-29T07:27:15;1.80;;;1.50;;
67869;SDS011;54673;52.262;6.830;2022-10-29T07:29:41;1.50;;;1.30;;
67869;SDS011;54673;52.262;6.830;2022-10-29T07:32:06;4.40;;;1.40;;
67869;SDS011;54673;52.262;6.830;2022-10-29T07:34:32;2.37;;;1.40;;
67869;SDS011;54673;52.262;6.830;2022-10-29T07:36:57;3.97;;;1.60;;
67869;SDS011;54673;52.262;6.830;2022-10-29T07:39:23;2.60;;;1.63;;
67869;SDS011;54673;52.262;6.830;2022-10-29T07:41:49;2.13;;;1.30;;
67869;SDS011;54673;52.262;6.830;2022-10-29T07:44:14;2.05;;;1.77;;
67869;SDS011;54673;52.262;6.830;2022-10-29T07:46:40;1.60;;;1.17;;
67869;SDS011;54673;52.262;6.830;2022-10-29T07:49:05;1.83;;;1.37;;
67869;SDS011;54673;52.262;6.830;2022-10-29T07:51:31;2.58;;;1.60;;
67869;SDS011;54673;52.262;6.830;2022-10-29T07:53:57;2.00;;;1.30;;
67869;SDS011;54673;52.262;6.830;2022-10-29T07:56:22;2.10;;;1.52;;
67869;SDS011;54673;52.262;6.830;2022-10-29T07:58:48;3.47;;;1.50;;
67869;SDS011;54673;52.262;6.830;2022-10-29T08:01:13;2.40;;;1.40;;
67869;SDS011;54673;52.262;6.830;2022-10-29T08:03:39;2.53;;;1.70;;
67869;SDS011;54673;52.262;6.830;2022-10-29T08:06:05;3.20;;;1.60;;
67869;SDS011;54673;52.262;6.830;2022-10-29T08:08:30;2.10;;;1.60;;
67869;SDS011;54673;52.262;6.830;2022-10-29T08:10:59;2.07;;;1.47;;
67869;SDS011;54673;52.262;6.830;2022-10-29T08:13:25;6.97;;;1.85;;
67869;SDS011;54673;52.262;6.830;2022-10-29T08:15:51;9.67;;;2.83;;
67869;SDS011;54673;52.262;6.830;2022-10-29T08:18:17;11.38;;;3.85;;
67869;SDS011;54673;52.262;6.830;2022-10-29T08:20:43;11.97;;;4.80;;
67869;SDS011;54673;52.262;6.830;2022-10-29T08:23:09;15.23;;;4.90;;
67869;SDS011;54673;52.262;6.830;2022-10-29T08:25:34;16.87;;;5.73;;
67869;SDS011;54673;52.262;6.830;2022-10-29T08:28:05;16.05;;;5.35;;
67869;SDS011;54673;52.262;6.830;2022-10-29T08:30:32;12.15;;;5.75;;
67869;SDS011;54673;52.262;6.830;2022-10-29T08:32:57;13.93;;;6.53;;
67869;SDS011;54673;52.262;6.830;2022-10-29T08:35:24;14.85;;;6.35;;
67869;SDS011;54673;52.262;6.830;2022-10-29T08:37:50;16.53;;;6.00;;
67869;SDS011;54673;52.262;6.830;2022-10-29T08:43:31;14.60;;;6.00;;
67869;SDS011;54673;52.262;6.830;2022-10-29T08:46:19;15.48;;;6.32;;
67869;SDS011;54673;52.262;6.830;2022-10-29T08:49:00;13.10;;;5.95;;
67869;SDS011;54673;52.262;6.830;2022-10-29T08:51:35;17.37;;;6.43;;
67869;SDS011;54673;52.262;6.830;2022-10-29T08:54:03;14.32;;;6.47;;
67869;SDS011;54673;52.262;6.830;2022-10-29T08:56:32;12.97;;;6.50;;
67869;SDS011;54673;52.262;6.830;2022-10-29T08:59:04;18.23;;;7.25;;
67869;SDS011;54673;52.262;6.830;2022-10-29T09:01:37;13.38;;;6.38;;
67869;SDS011;54673;52.262;6.830;2022-10-29T09:04:03;13.03;;;5.67;;
67869;SDS011;54673;52.262;6.830;2022-10-29T09:06:50;16.92;;;5.80;;
67869;SDS011;54673;52.262;6.830;2022-10-29T09:09:24;11.20;;;5.53;;
67869;SDS011;54673;52.262;6.830;2022-10-29T09:15:17;13.68;;;5.15;;
67869;SDS011;54673;52.262;6.830;2022-10-29T09:18:13;17.37;;;5.10;;
67869;SDS011;54673;52.262;6.830;2022-10-29T09:21:12;14.40;;;5.00;;
67869;SDS011;54673;52.262;6.830;2022-10-29T09:31:40;14.07;;;4.35;;
67869;SDS011;54673;52.262;6.830;2022-10-29T09:34:12;15.47;;;5.30;;
67869;SDS011;54673;52.262;6.830;2022-10-29T09:36:45;17.05;;;4.95;;
67869;SDS011;54673;52.262;6.830;2022-10-29T09:39:13;12.57;;;4.65;;
67869;SDS011;54673;52.262;6.830;2022-10-29T09:41:44;14.13;;;4.93;;
67869;SDS011;54673;52.262;6.830;2022-10-29T09:44:17;11.70;;;4.32;;
67869;SDS011;54673;52.262;6.830;2022-10-29T09:46:58;12.53;;;4.73;;
67869;SDS011;54673;52.262;6.830;2022-10-29T09:52:31;10.25;;;4.30;;
67869;SDS011;54673;52.262;6.830;2022-10-29T09:55:00;10.33;;;4.97;;
67869;SDS011;54673;52.262;6.830;2022-10-29T09:57:29;12.70;;;5.32;;
67869;SDS011;54673;52.262;6.830;2022-10-29T09:59:59;14.53;;;5.33;;
67869;SDS011;54673;52.262;6.830;2022-10-29T10:05:25;10.65;;;4.60;;
67869;SDS011;54673;52.262;6.830;2022-10-29T10:08:05;12.87;;;4.43;;
67869;SDS011;54673;52.262;6.830;2022-10-29T10:10:37;12.55;;;4.65;;
67869;SDS011;54673;52.262;6.830;2022-10-29T10:13:15;10.23;;;4.27;;
67869;SDS011;54673;52.262;6.830;2022-10-29T10:15:42;9.45;;;3.42;;
67869;SDS011;54673;52.262;6.830;2022-10-29T10:23:52;12.63;;;4.33;;
67869;SDS011;54673;52.262;6.830;2022-10-29T10:31:39;15.73;;;4.27;;
67869;SDS011;54673;52.262;6.830;2022-10-29T10:34:13;11.98;;;4.75;;
67869;SDS011;54673;52.262;6.830;2022-10-29T10:36:55;21.00;;;4.47;;
67869;SDS011;54673;52.262;6.830;2022-10-29T10:41:55;13.15;;;4.55;;
67869;SDS011;54673;52.262;6.830;2022-10-29T10:44:23;13.70;;;4.40;;
67869;SDS011;54673;52.262;6.830;2022-10-29T10:46:50;9.95;;;4.53;;
67869;SDS011;54673;52.262;6.830;2022-10-29T10:49:34;15.47;;;3.90;;
67869;SDS011;54673;52.262;6.830;2022-10-29T10:52:05;20.92;;;4.00;;
67869;SDS011;54673;52.262;6.830;2022-10-29T10:54:39;15.70;;;4.20;;
67869;SDS011;54673;52.262;6.830;2022-10-29T11:02:47;16.83;;;5.37;;
67869;SDS011;54673;52.262;6.830;2022-10-29T11:05:21;10.75;;;4.60;;
67869;SDS011;54673;52.262;6.830;2022-10-29T11:08:00;14.13;;;5.60;;
67869;SDS011;54673;52.262;6.830;2022-10-29T11:10:42;20.48;;;4.55;;
67869;SDS011;54673;52.262;6.830;2022-10-29T11:13:17;23.10;;;5.35;;
67869;SDS011;54673;52.262;6.830;2022-10-29T11:15:49;18.10;;;4.60;;
67869;SDS011;54673;52.262;6.830;2022-10-29T11:18:35;15.05;;;4.90;;
67869;SDS011;54673;52.262;6.830;2022-10-29T11:24:01;17.20;;;4.80;;
67869;SDS011;54673;52.262;6.830;2022-10-29T11:26:39;15.98;;;5.13;;
67869;SDS011;54673;52.262;6.830;2022-10-29T11:29:16;13.40;;;4.67;;
67869;SDS011;54673;52.262;6.830;2022-10-29T11:32:09;16.67;;;5.60;;
67869;SDS011;54673;52.262;6.830;2022-10-29T11:43:10;16.42;;;4.90;;
67869;SDS011;54673;52.262;6.830;2022-10-29T11:51:28;9.68;;;4.15;;
67869;SDS011;54673;52.262;6.830;2022-10-29T11:54:28;12.73;;;4.27;;
67869;SDS011;54673;52.262;6.830;2022-10-29T12:00:16;11.32;;;3.95;;
67869;SDS011;54673;52.262;6.830;2022-10-29T12:05:18;10.75;;;4.25;;
67869;SDS011;54673;52.262;6.830;2022-10-29T12:13:41;11.38;;;3.70;;
67869;SDS011;54673;52.262;6.830;2022-10-29T12:24:18;13.15;;;3.70;;
67869;SDS011;54673;52.262;6.830;2022-10-29T12:26:51;15.10;;;3.85;;
67869;SDS011;54673;52.262;6.830;2022-10-29T12:32:45;16.67;;;3.60;;
67869;SDS011;54673;52.262;6.830;2022-10-29T12:35:39;10.67;;;3.73;;
67869;SDS011;54673;52.262;6.830;2022-10-29T12:40:53;16.25;;;4.18;;
67869;SDS011;54673;52.262;6.830;2022-10-29T12:43:25;23.60;;;5.03;;
67869;SDS011;54673;52.262;6.830;2022-10-29T12:56:10;11.77;;;3.60;;
67869;SDS011;54673;52.262;6.830;2022-10-29T13:06:38;8.73;;;3.43;;
67869;SDS011;54673;52.262;6.830;2022-10-29T13:14:24;7.97;;;3.83;;
67869;SDS011;54673;52.262;6.830;2022-10-29T13:16:59;10.20;;;3.40;;
67869;SDS011;54673;52.262;6.830;2022-10-29T13:22:06;9.13;;;2.85;;
67869;SDS011;54673;52.262;6.830;2022-10-29T13:27:59;12.77;;;3.33;;
67869;SDS011;54673;52.262;6.830;2022-10-29T13:30:45;11.30;;;3.65;;
67869;SDS011;54673;52.262;6.830;2022-10-29T13:35:56;11.88;;;3.47;;
67869;SDS011;54673;52.262;6.830;2022-10-29T13:43:37;12.05;;;3.75;;
67869;SDS011;54673;52.262;6.830;2022-10-29T13:48:57;7.90;;;2.85;;
67869;SDS011;54673;52.262;6.830;2022-10-29T13:51:29;13.95;;;3.30;;
67869;SDS011;54673;52.262;6.830;2022-10-29T13:54:08;7.90;;;3.13;;
67869;SDS011;54673;52.262;6.830;2022-10-29T13:56:59;7.45;;;3.08;;
67869;SDS011;54673;52.262;6.830;2022-10-29T14:02:04;7.72;;;3.42;;
67869;SDS011;54673;52.262;6.830;2022-10-29T14:04:45;5.40;;;2.90;;
67869;SDS011;54673;52.262;6.830;2022-10-29T14:07:19;11.80;;;3.43;;
67869;SDS011;54673;52.262;6.830;2022-10-29T14:09:52;9.40;;;3.13;;
67869;SDS011;54673;52.262;6.830;2022-10-29T14:12:25;9.73;;;3.33;;
67869;SDS011;54673;52.262;6.830;2022-10-29T14:14:57;8.18;;;3.17;;
67869;SDS011;54673;52.262;6.830;2022-10-29T14:17:27;8.82;;;3.03;;
67869;SDS011;54673;52.262;6.830;2022-10-29T14:19:53;9.07;;;3.33;;
67869;SDS011;54673;52.262;6.830;2022-10-29T14:24:54;8.73;;;3.28;;
67869;SDS011;54673;52.262;6.830;2022-10-29T14:27:20;8.43;;;3.30;;
67869;SDS011;54673;52.262;6.830;2022-10-29T14:29:46;9.50;;;2.93;;
67869;SDS011;54673;52.262;6.830;2022-10-29T14:32:16;7.68;;;3.20;;
67869;SDS011;54673;52.262;6.830;2022-10-29T14:34:43;10.13;;;3.77;;
67869;SDS011;54673;52.262;6.830;2022-10-29T14:39:56;10.15;;;2.80;;
67869;SDS011;54673;52.262;6.830;2022-10-29T14:42:30;14.93;;;3.47;;
67869;SDS011;54673;52.262;6.830;2022-10-29T14:45:03;9.60;;;3.60;;
67869;SDS011;54673;52.262;6.830;2022-10-29T14:47:32;10.73;;;3.33;;
67869;SDS011;54673;52.262;6.830;2022-10-29T14:50:01;10.55;;;3.83;;
67869;SDS011;54673;52.262;6.830;2022-10-29T14:52:30;11.40;;;3.00;;
67869;SDS011;54673;52.262;6.830;2022-10-29T15:00:48;6.90;;;3.73;;
67869;SDS011;54673;52.262;6.830;2022-10-29T15:03:23;10.50;;;3.35;;
67869;SDS011;54673;52.262;6.830;2022-10-29T15:05:55;9.77;;;3.17;;
67869;SDS011;54673;52.262;6.830;2022-10-29T15:08:39;10.33;;;3.10;;
67869;SDS011;54673;52.262;6.830;2022-10-29T15:11:41;11.52;;;3.40;;
67869;SDS011;54673;52.262;6.830;2022-10-29T15:13:59;9.63;;;3.10;;
67869;SDS011;54673;52.262;6.830;2022-10-29T15:16:29;7.43;;;3.40;;
67869;SDS011;54673;52.262;6.830;2022-10-29T15:18:55;6.85;;;3.20;;
67869;SDS011;54673;52.262;6.830;2022-10-29T15:21:24;7.03;;;3.40;;
67869;SDS011;54673;52.262;6.830;2022-10-29T15:23:53;5.50;;;2.60;;
67869;SDS011;54673;52.262;6.830;2022-10-29T15:26:23;7.72;;;3.30;;
67869;SDS011;54673;52.262;6.830;2022-10-29T15:28:50;10.60;;;3.30;;
67869;SDS011;54673;52.262;6.830;2022-10-29T15:31:29;14.27;;;4.45;;
67869;SDS011;54673;52.262;6.830;2022-10-29T15:33:55;9.70;;;3.70;;
67869;SDS011;54673;52.262;6.830;2022-10-29T15:36:49;11.20;;;4.00;;
67869;SDS011;54673;52.262;6.830;2022-10-29T15:41:47;7.72;;;3.63;;
67869;SDS011;54673;52.262;6.830;2022-10-29T15:44:27;9.40;;;3.95;;
67869;SDS011;54673;52.262;6.830;2022-10-29T15:47:02;8.50;;;3.43;;
67869;SDS011;54673;52.262;6.830;2022-10-29T15:49:44;14.07;;;3.83;;
67869;SDS011;54673;52.262;6.830;2022-10-29T15:52:11;11.97;;;3.90;;
67869;SDS011;54673;52.262;6.830;2022-10-29T15:54:40;9.88;;;3.55;;
67869;SDS011;54673;52.262;6.830;2022-10-29T15:57:07;13.20;;;3.67;;
67869;SDS011;54673;52.262;6.830;2022-10-29T15:59:36;10.52;;;3.33;;
67869;SDS011;54673;52.262;6.830;2022-10-29T16:02:08;6.20;;;3.57;;
67869;SDS011;54673;52.262;6.830;2022-10-29T16:04:39;8.85;;;3.55;;
67869;SDS011;54673;52.262;6.830;2022-10-29T16:07:05;7.82;;;3.47;;
67869;SDS011;54673;52.262;6.830;2022-10-29T16:09:34;7.30;;;3.27;;
67869;SDS011;54673;52.262;6.830;2022-10-29T16:12:01;11.50;;;3.70;;
67869;SDS011;54673;52.262;6.830;2022-10-29T16:14:26;11.43;;;3.73;;
67869;SDS011;54673;52.262;6.830;2022-10-29T16:16:52;9.75;;;3.92;;
67869;SDS011;54673;52.262;6.830;2022-10-29T16:19:17;12.00;;;4.00;;
67869;SDS011;54673;52.262;6.830;2022-10-29T16:21:43;9.53;;;3.50;;
67869;SDS011;54673;52.262;6.830;2022-10-29T16:24:11;11.27;;;3.72;;
67869;SDS011;54673;52.262;6.830;2022-10-29T16:26:38;11.23;;;3.87;;
67869;SDS011;54673;52.262;6.830;2022-10-29T16:29:04;11.07;;;4.13;;
67869;SDS011;54673;52.262;6.830;2022-10-29T16:31:29;15.37;;;4.60;;
67869;SDS011;54673;52.262;6.830;2022-10-29T16:33:55;10.02;;;3.90;;
67869;SDS011;54673;52.262;6.830;2022-10-29T16:36:23;10.27;;;3.50;;
67869;SDS011;54673;52.262;6.830;2022-10-29T16:38:48;11.43;;;3.85;;
67869;SDS011;54673;52.262;6.830;2022-10-29T16:41:15;10.83;;;3.43;;
67869;SDS011;54673;52.262;6.830;2022-10-29T16:43:42;7.85;;;3.50;;
67869;SDS011;54673;52.262;6.830;2022-10-29T16:46:08;15.90;;;4.20;;
67869;SDS011;54673;52.262;6.830;2022-10-29T16:48:34;9.85;;;3.65;;
67869;SDS011;54673;52.262;6.830;2022-10-29T16:51:00;7.07;;;3.17;;
67869;SDS011;54673;52.262;6.830;2022-10-29T16:53:26;8.37;;;3.30;;
67869;SDS011;54673;52.262;6.830;2022-10-29T16:55:51;8.15;;;3.58;;
67869;SDS011;54673;52.262;6.830;2022-10-29T16:58:17;10.23;;;3.50;;
67869;SDS011;54673;52.262;6.830;2022-10-29T17:00:43;7.75;;;3.20;;
67869;SDS011;54673;52.262;6.830;2022-10-29T17:03:13;5.87;;;3.17;;
67869;SDS011;54673;52.262;6.830;2022-10-29T17:05:41;9.23;;;3.42;;
67869;SDS011;54673;52.262;6.830;2022-10-29T17:08:08;13.93;;;3.38;;
67869;SDS011;54673;52.262;6.830;2022-10-29T17:10:34;11.83;;;3.20;;
67869;SDS011;54673;52.262;6.830;2022-10-29T17:13:00;7.85;;;2.95;;
67869;SDS011;54673;52.262;6.830;2022-10-29T17:15:26;6.37;;;3.00;;
67869;SDS011;54673;52.262;6.830;2022-10-29T17:17:52;10.60;;;3.50;;
67869;SDS011;54673;52.262;6.830;2022-10-29T17:20:18;8.23;;;3.40;;
67869;SDS011;54673;52.262;6.830;2022-10-29T17:22:44;4.95;;;2.78;;
67869;SDS011;54673;52.262;6.830;2022-10-29T17:25:09;12.43;;;3.63;;
67869;SDS011;54673;52.262;6.830;2022-10-29T17:27:39;7.50;;;3.30;;
67869;SDS011;54673;52.262;6.830;2022-10-29T17:30:06;8.43;;;3.30;;
67869;SDS011;54673;52.262;6.830;2022-10-29T17:32:33;7.33;;;3.37;;
67869;SDS011;54673;52.262;6.830;2022-10-29T17:34:59;6.80;;;3.53;;
67869;SDS011;54673;52.262;6.830;2022-10-29T17:37:25;12.80;;;3.43;;
67869;SDS011;54673;52.262;6.830;2022-10-29T17:39:50;7.63;;;3.17;;
67869;SDS011;54673;52.262;6.830;2022-10-29T17:42:16;8.63;;;3.07;;
67869;SDS011;54673;52.262;6.830;2022-10-29T17:44:42;10.45;;;3.40;;